Time;durP1;ratioP1;P1;durP2;ratioP2;P2;SDS_P1;SDS_P2;PMS_P1;PMS_P2;Temp;Humidity;BMP_temperature;BMP_pressure;BME280_temperature;BME280_humidity;BME280_pressure;Samples;Min_cycle;Max_cycle;Signal;HPM_P1;HPM_P2
2024/02/03 00:00:05;;;;;;;;;;;4.80;99.90;;;;;;5054181;28;20020;-60
2024/02/03 00:02:33;;;;;;;;;;;4.80;99.90;;;;;;5046995;28;19987;-62
2024/02/03 00:05:00;;;;;;;;;;;4.80;99.90;;;;;;5050757;28;19925;-61
2024/02/03 00:07:28;;;;;;;;;;;4.90;99.90;;;;;;5056489;28;19925;-58
2024/02/03 00:09:55;;;;;;;;;;;4.90;99.90;;;;;;5053283;28;19929;-60
2024/02/03 00:12:25;;;;;;;;;;;4.90;99.90;;;;;;5051142;28;19925;-64
2024/02/03 00:14:53;;;;;;;;;;;4.90;99.90;;;;;;5053099;28;20607;-63
2024/02/03 00:17:19;;;;;;;;;;;4.90;99.90;;;;;;5052463;28;19928;-59
2024/02/03 00:19:46;;;;;;;;;;;4.90;99.90;;;;;;5055463;28;19925;-64
2024/02/03 00:22:13;;;;;;;;;;;4.80;99.90;;;;;;5051727;28;19924;-66
2024/02/03 00:24:40;;;;;;;;;;;4.80;99.90;;;;;;5056489;28;19925;-59
2024/02/03 00:27:07;;;;;;;;;;;4.80;99.90;;;;;;5054973;28;19933;-59
2024/02/03 00:29:34;;;;;;;;;;;4.80;99.90;;;;;;5054250;28;20417;-64
2024/02/03 00:32:01;;;;;;;;;;;4.70;99.90;;;;;;5047975;28;19925;-59
2024/02/03 00:34:28;;;;;;;;;;;4.70;99.90;;;;;;5052050;28;19925;-60
2024/02/03 00:36:55;;;;;;;;;;;4.60;99.90;;;;;;5052345;28;19925;-61
2024/02/03 00:39:22;;;;;;;;;;;4.60;99.90;;;;;;5056137;28;19978;-62
2024/02/03 00:41:48;;;;;;;;;;;4.50;99.90;;;;;;5056710;28;19962;-59
2024/02/03 00:44:15;;;;;;;;;;;4.50;99.90;;;;;;5056617;28;19933;-60
2024/02/03 00:46:42;;;;;;;;;;;4.50;99.90;;;;;;5053353;28;19998;-59
2024/02/03 00:49:09;;;;;;;;;;;4.40;99.90;;;;;;5054886;28;20006;-58
2024/02/03 00:51:37;;;;;;;;;;;4.40;99.90;;;;;;5053600;28;19928;-64
2024/02/03 00:54:04;;;;;;;;;;;4.40;99.90;;;;;;5050984;28;19925;-59
2024/02/03 00:56:34;;;;;;;;;;;4.40;99.90;;;;;;5052589;28;19928;-58
2024/02/03 00:59:01;;;;;;;;;;;4.40;99.90;;;;;;5049387;28;19925;-60
2024/02/03 01:01:28;;;;;;;;;;;4.40;99.90;;;;;;5054213;28;19929;-60
2024/02/03 01:03:55;;;;;;;;;;;4.40;99.90;;;;;;5049658;28;19932;-59
2024/02/03 01:06:22;;;;;;;;;;;4.40;99.90;;;;;;5055872;28;20306;-58
2024/02/03 01:08:49;;;;;;;;;;;4.40;99.90;;;;;;5052994;28;19975;-61
2024/02/03 01:11:16;;;;;;;;;;;4.40;99.90;;;;;;5060345;28;20019;-61
2024/02/03 01:13:44;;;;;;;;;;;4.40;99.90;;;;;;5054865;28;19932;-62
2024/02/03 01:16:11;;;;;;;;;;;4.40;99.90;;;;;;5055383;28;19924;-60
2024/02/03 01:18:38;;;;;;;;;;;4.40;99.90;;;;;;5050050;28;19933;-61
2024/02/03 01:21:07;;;;;;;;;;;4.40;99.90;;;;;;5052460;28;19924;-58
2024/02/03 01:23:34;;;;;;;;;;;4.50;99.90;;;;;;5046621;28;19936;-66
2024/02/03 01:26:00;;;;;;;;;;;4.50;99.90;;;;;;5049777;28;19957;-58
2024/02/03 01:28:27;;;;;;;;;;;4.50;99.90;;;;;;5055854;28;20039;-60
2024/02/03 01:30:54;;;;;;;;;;;4.50;99.90;;;;;;5057928;28;19970;-59
2024/02/03 01:33:21;;;;;;;;;;;4.50;99.90;;;;;;5053698;28;19956;-59
2024/02/03 01:35:48;;;;;;;;;;;4.50;99.90;;;;;;5057774;28;19964;-61
2024/02/03 01:38:15;;;;;;;;;;;4.50;99.90;;;;;;5055812;28;20371;-58
2024/02/03 01:40:42;;;;;;;;;;;4.50;99.90;;;;;;5058087;28;19924;-58
2024/02/03 01:43:11;;;;;;;;;;;4.50;99.90;;;;;;5060048;28;19936;-59
2024/02/03 01:45:38;;;;;;;;;;;4.40;99.90;;;;;;5050929;28;19929;-61
2024/02/03 01:48:06;;;;;;;;;;;4.40;99.90;;;;;;5053552;28;20406;-59
2024/02/03 01:50:33;;;;;;;;;;;4.40;99.90;;;;;;5049052;28;20381;-58
2024/02/03 01:53:01;;;;;;;;;;;4.40;99.90;;;;;;5054775;28;19978;-58
2024/02/03 01:55:29;;;;;;;;;;;4.40;99.90;;;;;;5053644;28;19951;-60
2024/02/03 01:57:59;;;;;;;;;;;4.40;99.90;;;;;;5052361;28;19990;-60
2024/02/03 02:00:26;;;;;;;;;;;4.40;99.90;;;;;;5051371;28;19928;-62
2024/02/03 02:02:56;;;;;;;;;;;4.40;99.90;;;;;;5054499;28;19982;-64
2024/02/03 02:05:23;;;;;;;;;;;4.40;99.90;;;;;;5056962;28;19925;-59
2024/02/03 02:07:50;;;;;;;;;;;4.30;99.90;;;;;;5055057;28;20453;-58
2024/02/03 02:10:17;;;;;;;;;;;4.40;99.90;;;;;;5055525;28;20019;-65
2024/02/03 02:12:44;;;;;;;;;;;4.30;99.90;;;;;;5057015;28;19931;-60
2024/02/03 02:15:11;;;;;;;;;;;4.30;99.90;;;;;;5053052;28;19979;-61
2024/02/03 02:17:38;;;;;;;;;;;4.30;99.90;;;;;;5054010;28;19947;-61
2024/02/03 02:20:06;;;;;;;;;;;4.30;99.90;;;;;;5053156;28;19925;-60
2024/02/03 02:22:33;;;;;;;;;;;4.40;99.90;;;;;;5053450;28;20028;-59
2024/02/03 02:25:00;;;;;;;;;;;4.40;99.90;;;;;;5053583;28;20055;-63
2024/02/03 02:27:26;;;;;;;;;;;4.50;99.90;;;;;;5052662;28;19951;-62
2024/02/03 02:29:53;;;;;;;;;;;4.50;99.90;;;;;;5046897;28;20024;-61
2024/02/03 02:32:20;;;;;;;;;;;4.50;99.90;;;;;;5051543;28;19924;-58
2024/02/03 02:34:47;;;;;;;;;;;4.60;99.90;;;;;;5051513;28;19932;-63
2024/02/03 02:37:14;;;;;;;;;;;4.60;99.90;;;;;;5054183;28;19964;-59
2024/02/03 02:39:41;;;;;;;;;;;4.60;99.90;;;;;;5055174;28;19929;-60
2024/02/03 02:42:08;;;;;;;;;;;4.70;99.90;;;;;;5053616;28;19936;-59
2024/02/03 02:44:35;;;;;;;;;;;4.70;99.90;;;;;;5054442;28;19924;-66
2024/02/03 02:47:02;;;;;;;;;;;4.70;99.90;;;;;;5048479;28;19925;-63
2024/02/03 02:49:29;;;;;;;;;;;4.70;99.90;;;;;;5047485;28;19925;-59
2024/02/03 02:51:56;;;;;;;;;;;4.70;99.90;;;;;;5052610;28;19972;-59
2024/02/03 02:54:23;;;;;;;;;;;4.70;99.90;;;;;;5053492;28;20232;-61
2024/02/03 02:56:49;;;;;;;;;;;4.70;99.90;;;;;;5047755;28;19932;-58
2024/02/03 02:59:18;;;;;;;;;;;4.70;99.90;;;;;;5056479;28;19929;-62
2024/02/03 03:01:45;;;;;;;;;;;4.70;99.90;;;;;;5057484;28;19925;-60
2024/02/03 03:04:11;;;;;;;;;;;4.70;99.90;;;;;;5058299;28;19925;-61
2024/02/03 03:06:38;;;;;;;;;;;4.70;99.90;;;;;;5053916;28;19933;-63
2024/02/03 03:09:07;;;;;;;;;;;4.70;99.90;;;;;;5059494;28;20370;-60
2024/02/03 03:11:35;;;;;;;;;;;4.70;99.90;;;;;;5049328;28;20374;-62
2024/02/03 03:14:05;;;;;;;;;;;4.70;99.90;;;;;;5051016;28;19925;-57
2024/02/03 03:16:32;;;;;;;;;;;4.70;99.90;;;;;;5044146;28;19936;-64
2024/02/03 03:18:59;;;;;;;;;;;4.70;99.90;;;;;;5049141;28;19929;-59
2024/02/03 03:21:26;;;;;;;;;;;4.70;99.90;;;;;;5043323;28;20382;-59
2024/02/03 03:23:52;;;;;;;;;;;4.60;99.90;;;;;;5050515;28;19950;-60
2024/02/03 03:26:19;;;;;;;;;;;4.60;99.90;;;;;;5048197;28;19925;-62
2024/02/03 03:28:46;;;;;;;;;;;4.60;99.90;;;;;;5047066;28;19939;-66
2024/02/03 03:31:13;;;;;;;;;;;4.70;99.90;;;;;;5048588;28;19925;-64
2024/02/03 03:33:40;;;;;;;;;;;4.70;99.90;;;;;;5048765;28;19955;-61
2024/02/03 03:36:07;;;;;;;;;;;4.70;99.90;;;;;;5051912;28;19933;-63
2024/02/03 03:38:42;;;;;;;;;;;4.70;99.90;;;;;;5054134;28;19959;-60
2024/02/03 03:41:09;;;;;;;;;;;4.70;99.90;;;;;;5053046;28;20016;-60
2024/02/03 03:43:37;;;;;;;;;;;4.70;99.90;;;;;;5052247;28;19933;-63
2024/02/03 03:46:04;;;;;;;;;;;4.70;99.90;;;;;;5052380;28;19936;-58
2024/02/03 03:48:32;;;;;;;;;;;4.70;99.90;;;;;;5053523;28;19960;-62
2024/02/03 03:50:58;;;;;;;;;;;4.70;99.90;;;;;;5064248;28;20650;-60
2024/02/03 03:53:25;;;;;;;;;;;4.60;99.90;;;;;;5051805;28;20295;-60
2024/02/03 03:55:52;;;;;;;;;;;4.60;99.90;;;;;;5046503;28;20015;-60
2024/02/03 03:58:19;;;;;;;;;;;4.60;99.90;;;;;;5059120;28;20009;-61
2024/02/03 04:00:46;;;;;;;;;;;4.60;99.90;;;;;;5045396;28;19924;-59
2024/02/03 04:03:13;;;;;;;;;;;4.70;99.90;;;;;;5049927;28;19983;-60
2024/02/03 04:05:40;;;;;;;;;;;4.60;99.90;;;;;;5050728;28;19928;-61
2024/02/03 04:08:07;;;;;;;;;;;4.70;99.90;;;;;;5050090;28;19935;-60
2024/02/03 04:10:34;;;;;;;;;;;4.70;99.90;;;;;;5050217;28;20055;-62
2024/02/03 04:13:01;;;;;;;;;;;4.70;99.90;;;;;;5055129;28;19924;-64
2024/02/03 04:15:31;;;;;;;;;;;4.70;99.90;;;;;;5049876;28;19932;-64
2024/02/03 04:17:59;;;;;;;;;;;4.70;99.90;;;;;;5050452;28;19936;-60
2024/02/03 04:20:26;;;;;;;;;;;4.70;99.90;;;;;;5046045;28;20028;-58
2024/02/03 04:22:52;;;;;;;;;;;4.70;99.90;;;;;;5049443;28;19955;-61
2024/02/03 04:25:19;;;;;;;;;;;4.70;99.90;;;;;;5051480;28;20007;-61
2024/02/03 04:27:46;;;;;;;;;;;4.70;99.90;;;;;;5049151;28;19979;-58
2024/02/03 04:30:13;;;;;;;;;;;4.70;99.90;;;;;;5046222;28;19963;-59
2024/02/03 04:32:50;;;;;;;;;;;4.80;99.90;;;;;;5047346;28;20448;-60
2024/02/03 04:35:17;;;;;;;;;;;4.70;99.90;;;;;;5049437;28;19948;-60
2024/02/03 04:37:44;;;;;;;;;;;4.70;99.90;;;;;;5047540;28;20370;-63
2024/02/03 04:40:11;;;;;;;;;;;4.70;99.90;;;;;;5047476;28;19925;-61
2024/02/03 04:42:38;;;;;;;;;;;4.80;99.90;;;;;;5055832;28;19929;-62
2024/02/03 04:45:05;;;;;;;;;;;4.80;99.90;;;;;;5049111;28;19987;-61
2024/02/03 04:47:32;;;;;;;;;;;4.80;99.90;;;;;;5057721;28;19929;-58
2024/02/03 04:50:00;;;;;;;;;;;4.90;99.90;;;;;;5057972;28;20294;-61
2024/02/03 04:52:28;;;;;;;;;;;4.90;99.90;;;;;;5048311;28;19929;-59
2024/02/03 04:54:54;;;;;;;;;;;4.90;99.90;;;;;;5044942;28;19929;-60
2024/02/03 04:57:21;;;;;;;;;;;4.90;99.90;;;;;;5050054;28;19925;-59
2024/02/03 04:59:48;;;;;;;;;;;4.90;99.90;;;;;;5053979;28;19932;-63
2024/02/03 05:02:15;;;;;;;;;;;4.90;99.90;;;;;;5040404;28;20372;-58
2024/02/03 05:04:42;;;;;;;;;;;4.90;99.90;;;;;;5051721;28;19958;-59
2024/02/03 05:07:09;;;;;;;;;;;4.90;99.90;;;;;;5043416;28;20374;-59
2024/02/03 05:09:36;;;;;;;;;;;4.90;99.90;;;;;;5051326;28;19929;-58
2024/02/03 05:12:03;;;;;;;;;;;4.90;99.90;;;;;;5051475;28;19956;-65
2024/02/03 05:14:30;;;;;;;;;;;4.90;99.90;;;;;;5044098;28;19931;-58
2024/02/03 05:16:59;;;;;;;;;;;4.90;99.90;;;;;;5047178;28;20439;-60
2024/02/03 05:19:27;;;;;;;;;;;5.00;99.90;;;;;;5051360;28;19925;-58
2024/02/03 05:21:54;;;;;;;;;;;5.00;99.90;;;;;;5055936;28;20313;-58
2024/02/03 05:24:22;;;;;;;;;;;5.00;99.90;;;;;;5043307;28;19928;-59
2024/02/03 05:26:49;;;;;;;;;;;5.10;99.90;;;;;;5048802;28;19929;-63
2024/02/03 05:29:16;;;;;;;;;;;5.10;99.90;;;;;;5047218;28;19951;-63
2024/02/03 05:31:43;;;;;;;;;;;5.10;99.90;;;;;;5048246;28;20433;-60
2024/02/03 05:34:11;;;;;;;;;;;5.10;99.90;;;;;;5048192;28;20327;-60
2024/02/03 05:36:38;;;;;;;;;;;5.10;99.90;;;;;;5051466;28;20032;-61
2024/02/03 05:39:05;;;;;;;;;;;5.10;99.90;;;;;;5055106;28;19929;-58
2024/02/03 05:41:32;;;;;;;;;;;5.20;99.90;;;;;;5052456;28;19970;-59
2024/02/03 05:43:59;;;;;;;;;;;5.20;99.90;;;;;;5054416;28;19933;-61
2024/02/03 05:46:26;;;;;;;;;;;5.20;99.90;;;;;;5051895;28;19947;-58
2024/02/03 05:48:54;;;;;;;;;;;5.20;99.90;;;;;;5051453;28;19935;-61
2024/02/03 05:51:21;;;;;;;;;;;5.20;99.90;;;;;;5052659;28;19934;-61
2024/02/03 05:53:48;;;;;;;;;;;5.20;99.90;;;;;;5057483;28;19928;-62
2024/02/03 05:56:15;;;;;;;;;;;5.30;99.90;;;;;;5049399;28;20278;-61
2024/02/03 05:58:44;;;;;;;;;;;5.30;99.90;;;;;;5051483;28;20386;-60
2024/02/03 06:01:11;;;;;;;;;;;5.40;99.90;;;;;;5053011;28;19924;-59
2024/02/03 06:03:38;;;;;;;;;;;5.40;99.90;;;;;;5055404;28;20047;-65
2024/02/03 06:06:05;;;;;;;;;;;5.40;99.90;;;;;;5052001;28;19940;-60
2024/02/03 06:08:51;;;;;;;;;;;5.40;99.90;;;;;;5050397;28;19931;-58
2024/02/03 06:11:18;;;;;;;;;;;5.30;99.90;;;;;;5049750;28;19936;-61
2024/02/03 06:13:45;;;;;;;;;;;5.30;99.90;;;;;;5045936;28;20036;-61
2024/02/03 06:16:12;;;;;;;;;;;5.30;99.90;;;;;;5045443;28;19982;-60
2024/02/03 06:18:39;;;;;;;;;;;5.30;99.90;;;;;;5048752;28;19932;-61
2024/02/03 06:21:10;;;;;;;;;;;5.30;99.90;;;;;;5049563;28;21699;-59
2024/02/03 06:23:37;;;;;;;;;;;5.30;99.90;;;;;;5050901;28;20282;-63
2024/02/03 06:26:04;;;;;;;;;;;5.30;99.90;;;;;;5047860;28;19935;-58
2024/02/03 06:28:31;;;;;;;;;;;5.30;99.90;;;;;;5061007;28;20062;-59
2024/02/03 06:30:57;;;;;;;;;;;5.30;99.90;;;;;;5050165;28;19978;-59
2024/02/03 06:33:24;;;;;;;;;;;5.30;99.90;;;;;;5052950;28;19924;-61
2024/02/03 06:35:51;;;;;;;;;;;5.30;99.90;;;;;;5054706;28;19929;-59
2024/02/03 06:38:18;;;;;;;;;;;5.30;99.90;;;;;;5049236;28;19928;-65
2024/02/03 06:40:45;;;;;;;;;;;5.30;99.90;;;;;;5063404;28;19944;-63
2024/02/03 06:43:12;;;;;;;;;;;5.20;99.90;;;;;;5055576;28;20279;-63
2024/02/03 06:45:39;;;;;;;;;;;5.20;99.90;;;;;;5051432;28;20699;-61
2024/02/03 06:48:07;;;;;;;;;;;5.10;99.90;;;;;;5056617;28;20457;-59
2024/02/03 06:50:33;;;;;;;;;;;5.10;99.90;;;;;;5056093;28;19935;-58
2024/02/03 06:53:03;;;;;;;;;;;5.00;99.90;;;;;;5053455;28;19932;-61
2024/02/03 06:55:29;;;;;;;;;;;4.90;99.90;;;;;;5049016;28;19937;-58
2024/02/03 06:57:56;;;;;;;;;;;4.90;99.90;;;;;;5055431;28;19924;-58
2024/02/03 07:00:23;;;;;;;;;;;4.80;99.90;;;;;;5049477;28;19925;-60
2024/02/03 07:02:50;;;;;;;;;;;4.80;99.90;;;;;;5056907;28;19936;-58
2024/02/03 07:05:17;;;;;;;;;;;4.80;99.90;;;;;;5056359;28;20036;-59
2024/02/03 07:07:43;;;;;;;;;;;4.80;99.90;;;;;;5055652;28;20505;-62
2024/02/03 07:10:10;;;;;;;;;;;4.70;99.90;;;;;;5049789;28;19937;-61
2024/02/03 07:12:37;;;;;;;;;;;4.70;99.90;;;;;;5057225;28;19978;-59
2024/02/03 07:15:05;;;;;;;;;;;4.70;99.90;;;;;;5050077;28;20416;-60
2024/02/03 07:17:32;;;;;;;;;;;4.70;99.90;;;;;;5069453;28;19964;-59
2024/02/03 07:19:59;;;;;;;;;;;4.70;99.90;;;;;;5051930;28;19974;-60
2024/02/03 07:22:26;;;;;;;;;;;4.70;99.90;;;;;;5055219;28;19977;-59
2024/02/03 07:24:53;;;;;;;;;;;4.80;99.90;;;;;;5051620;28;19956;-59
2024/02/03 07:27:20;;;;;;;;;;;4.80;99.90;;;;;;5052790;28;20549;-59
2024/02/03 07:29:47;;;;;;;;;;;4.80;99.90;;;;;;5050122;28;19925;-64
2024/02/03 07:32:14;;;;;;;;;;;4.80;99.90;;;;;;5056026;28;20333;-59
2024/02/03 07:34:44;;;;;;;;;;;4.90;99.90;;;;;;5051566;28;20391;-59
2024/02/03 07:37:12;;;;;;;;;;;5.00;99.90;;;;;;5045801;28;20299;-60
2024/02/03 07:39:39;;;;;;;;;;;5.00;99.90;;;;;;5055826;28;19997;-61
2024/02/03 07:42:06;;;;;;;;;;;5.00;99.90;;;;;;5054220;28;19925;-58
2024/02/03 07:44:33;;;;;;;;;;;5.00;99.90;;;;;;5051008;28;19928;-57
2024/02/03 07:47:00;;;;;;;;;;;5.00;99.90;;;;;;5051563;28;19932;-60
2024/02/03 07:49:26;;;;;;;;;;;5.00;99.90;;;;;;5048403;28;20033;-58
2024/02/03 07:51:53;;;;;;;;;;;5.10;99.90;;;;;;5053429;28;19927;-61
2024/02/03 07:54:21;;;;;;;;;;;5.20;99.90;;;;;;5048633;28;19932;-64
2024/02/03 07:56:48;;;;;;;;;;;5.10;99.90;;;;;;5049813;28;19925;-60
2024/02/03 07:59:15;;;;;;;;;;;5.10;99.90;;;;;;5047251;28;19925;-59
2024/02/03 08:01:42;;;;;;;;;;;5.10;99.90;;;;;;5048611;28;20508;-67
2024/02/03 08:04:09;;;;;;;;;;;5.10;99.90;;;;;;5048253;28;20116;-59
2024/02/03 08:06:36;;;;;;;;;;;5.00;99.90;;;;;;5044692;28;19929;-59
2024/02/03 08:09:03;;;;;;;;;;;5.00;99.90;;;;;;5046533;28;19929;-58
2024/02/03 08:11:30;;;;;;;;;;;5.00;99.90;;;;;;5046443;28;20268;-58
2024/02/03 08:13:57;;;;;;;;;;;5.00;99.90;;;;;;5035676;28;20009;-58
2024/02/03 08:16:24;;;;;;;;;;;5.00;99.90;;;;;;5054823;28;19925;-59
2024/02/03 08:18:51;;;;;;;;;;;5.00;99.90;;;;;;5056737;28;19936;-59
2024/02/03 08:21:17;;;;;;;;;;;5.00;99.90;;;;;;5056010;28;19928;-61
2024/02/03 08:23:44;;;;;;;;;;;5.00;99.90;;;;;;5048192;28;19932;-62
2024/02/03 08:26:12;;;;;;;;;;;5.00;99.90;;;;;;5045432;28;19936;-59
2024/02/03 08:28:39;;;;;;;;;;;5.00;99.90;;;;;;5049293;28;19991;-59
2024/02/03 08:31:05;;;;;;;;;;;4.90;99.90;;;;;;5035965;28;20334;-61
2024/02/03 08:33:32;;;;;;;;;;;4.90;99.90;;;;;;5053577;28;20031;-59
2024/02/03 08:35:59;;;;;;;;;;;4.90;99.90;;;;;;5050863;28;20020;-60
2024/02/03 08:38:26;;;;;;;;;;;4.90;99.90;;;;;;5043191;28;20441;-61
2024/02/03 08:40:53;;;;;;;;;;;4.90;99.90;;;;;;5049971;28;19928;-58
2024/02/03 08:43:19;;;;;;;;;;;4.90;99.90;;;;;;5055216;28;20035;-67
2024/02/03 08:45:46;;;;;;;;;;;4.90;99.90;;;;;;5050357;28;20382;-61
2024/02/03 08:48:13;;;;;;;;;;;4.80;99.90;;;;;;5055922;28;19925;-59
2024/02/03 08:50:40;;;;;;;;;;;4.80;99.90;;;;;;5056983;28;19932;-60
2024/02/03 08:53:07;;;;;;;;;;;4.80;99.90;;;;;;5054565;28;19924;-59
2024/02/03 08:55:34;;;;;;;;;;;4.90;99.90;;;;;;5053267;28;20376;-58
2024/02/03 08:58:01;;;;;;;;;;;4.90;99.90;;;;;;5053039;28;19932;-63
2024/02/03 09:00:28;;;;;;;;;;;4.80;99.90;;;;;;5044895;28;19925;-59
2024/02/03 09:02:55;;;;;;;;;;;4.90;99.90;;;;;;5053080;28;20275;-59
2024/02/03 09:05:21;;;;;;;;;;;4.90;99.90;;;;;;5050599;28;20036;-67
2024/02/03 09:07:51;;;;;;;;;;;4.90;99.90;;;;;;5057440;28;20015;-61
2024/02/03 09:10:18;;;;;;;;;;;4.90;99.90;;;;;;5053126;28;20019;-59
2024/02/03 09:12:45;;;;;;;;;;;4.90;99.90;;;;;;5059814;28;19978;-61
2024/02/03 09:15:11;;;;;;;;;;;5.00;99.90;;;;;;5053557;28;19964;-59
2024/02/03 09:17:38;;;;;;;;;;;4.90;99.90;;;;;;5059639;28;19928;-59
2024/02/03 09:20:05;;;;;;;;;;;5.00;99.90;;;;;;5052088;28;19936;-59
2024/02/03 09:22:32;;;;;;;;;;;5.00;99.90;;;;;;5056153;28;19925;-59
2024/02/03 09:24:59;;;;;;;;;;;4.90;99.90;;;;;;5054812;28;20011;-61
2024/02/03 09:27:26;;;;;;;;;;;4.90;99.90;;;;;;5057260;28;20322;-59
2024/02/03 09:29:53;;;;;;;;;;;4.90;99.90;;;;;;5042871;28;19929;-59
2024/02/03 09:32:20;;;;;;;;;;;4.90;99.90;;;;;;5044322;28;19979;-60
2024/02/03 09:34:47;;;;;;;;;;;4.90;99.90;;;;;;5045468;28;19992;-62
2024/02/03 09:37:14;;;;;;;;;;;4.90;99.90;;;;;;5048177;28;19928;-59
2024/02/03 09:39:44;;;;;;;;;;;5.00;99.90;;;;;;5046207;28;20383;-63
2024/02/03 09:42:11;;;;;;;;;;;5.00;99.90;;;;;;5042931;28;19948;-58
2024/02/03 09:44:38;;;;;;;;;;;4.90;99.90;;;;;;5051372;28;19925;-64
2024/02/03 09:47:05;;;;;;;;;;;4.90;99.90;;;;;;5045498;28;19960;-60
2024/02/03 09:49:32;;;;;;;;;;;4.90;99.90;;;;;;5051036;28;19936;-58
2024/02/03 09:51:59;;;;;;;;;;;4.90;99.90;;;;;;5052770;28;19944;-60
2024/02/03 09:54:26;;;;;;;;;;;4.90;99.90;;;;;;5049577;28;19932;-60
2024/02/03 09:56:53;;;;;;;;;;;4.90;99.90;;;;;;5053321;28;20011;-58
2024/02/03 09:59:20;;;;;;;;;;;4.90;99.90;;;;;;5053969;28;19928;-58
2024/02/03 10:01:47;;;;;;;;;;;5.00;99.90;;;;;;5054133;28;19926;-65
2024/02/03 10:04:15;;;;;;;;;;;5.00;99.90;;;;;;5053343;28;19924;-60
2024/02/03 10:06:44;;;;;;;;;;;5.00;99.90;;;;;;5050165;28;19929;-58
2024/02/03 10:09:22;;;;;;;;;;;5.00;99.90;;;;;;5051816;28;20357;-60
2024/02/03 10:11:49;;;;;;;;;;;5.00;99.90;;;;;;5044870;28;19932;-60
2024/02/03 10:14:18;;;;;;;;;;;5.00;99.90;;;;;;5054483;28;19931;-62
2024/02/03 10:16:45;;;;;;;;;;;5.00;99.90;;;;;;5048958;28;20027;-62
2024/02/03 10:19:12;;;;;;;;;;;5.00;99.90;;;;;;5051340;28;19931;-59
2024/02/03 10:21:39;;;;;;;;;;;4.90;99.90;;;;;;5048789;28;19929;-62
2024/02/03 10:24:06;;;;;;;;;;;5.00;99.90;;;;;;5053709;28;20365;-59
2024/02/03 10:26:33;;;;;;;;;;;5.00;99.90;;;;;;5055403;28;19982;-62
2024/02/03 10:29:00;;;;;;;;;;;5.00;99.90;;;;;;5054836;28;20024;-62
2024/02/03 10:31:27;;;;;;;;;;;5.10;99.90;;;;;;5048199;28;20259;-60
2024/02/03 10:33:57;;;;;;;;;;;5.10;99.90;;;;;;5052893;28;19924;-59
2024/02/03 10:36:24;;;;;;;;;;;5.10;99.90;;;;;;5055099;28;20259;-59
2024/02/03 10:38:50;;;;;;;;;;;5.10;99.90;;;;;;5052168;28;19975;-60
2024/02/03 10:41:19;;;;;;;;;;;5.10;99.90;;;;;;5056180;28;20031;-63
2024/02/03 10:43:50;;;;;;;;;;;5.10;99.90;;;;;;5053573;28;19929;-59
2024/02/03 10:46:19;;;;;;;;;;;5.10;99.90;;;;;;5050190;28;20031;-61
2024/02/03 10:48:45;;;;;;;;;;;5.10;99.90;;;;;;5050387;28;19924;-67
2024/02/03 10:51:19;;;;;;;;;;;5.10;99.90;;;;;;5058388;28;19932;-62
2024/02/03 10:53:51;;;;;;;;;;;5.10;99.90;;;;;;5054423;28;20023;-63
2024/02/03 10:56:19;;;;;;;;;;;5.20;99.90;;;;;;5048008;28;19925;-59
2024/02/03 10:58:45;;;;;;;;;;;5.20;99.90;;;;;;5050891;28;20498;-65
2024/02/03 11:01:15;;;;;;;;;;;5.20;99.90;;;;;;5054027;28;19951;-63
2024/02/03 11:03:43;;;;;;;;;;;5.20;99.90;;;;;;5044912;28;20040;-62
2024/02/03 11:06:10;;;;;;;;;;;5.20;99.90;;;;;;5052365;28;19925;-58
2024/02/03 11:08:41;;;;;;;;;;;5.20;99.90;;;;;;5054052;28;19975;-65
2024/02/03 11:11:07;;;;;;;;;;;5.20;99.90;;;;;;5051469;28;20036;-62
2024/02/03 11:13:37;;;;;;;;;;;5.20;99.90;;;;;;5053222;28;19955;-59
2024/02/03 11:16:05;;;;;;;;;;;5.20;99.90;;;;;;5048052;28;19978;-58
2024/02/03 11:18:39;;;;;;;;;;;5.20;99.90;;;;;;5050473;28;19968;-59
2024/02/03 11:21:07;;;;;;;;;;;5.20;99.90;;;;;;5054271;28;20356;-61
2024/02/03 11:23:34;;;;;;;;;;;5.20;99.90;;;;;;5049674;28;19929;-66
2024/02/03 11:26:01;;;;;;;;;;;5.30;99.90;;;;;;5048648;28;19928;-59
2024/02/03 11:28:32;;;;;;;;;;;5.30;99.90;;;;;;5056362;28;19925;-68
2024/02/03 11:31:00;;;;;;;;;;;5.30;99.90;;;;;;5050042;28;19983;-58
2024/02/03 11:33:29;;;;;;;;;;;5.20;99.90;;;;;;5051920;28;19924;-60
2024/02/03 11:36:00;;;;;;;;;;;5.30;99.90;;;;;;5049753;28;19933;-62
2024/02/03 11:38:27;;;;;;;;;;;5.30;99.90;;;;;;5049301;28;19960;-59
2024/02/03 11:40:56;;;;;;;;;;;5.30;99.90;;;;;;5047378;28;19929;-59
2024/02/03 11:43:27;;;;;;;;;;;5.30;99.90;;;;;;5051591;28;19932;-59
2024/02/03 11:45:58;;;;;;;;;;;5.20;99.90;;;;;;5048018;28;20345;-60
2024/02/03 11:48:25;;;;;;;;;;;5.20;99.90;;;;;;5041277;28;19960;-60
2024/02/03 11:50:52;;;;;;;;;;;5.10;99.90;;;;;;5043868;28;19975;-62
2024/02/03 11:53:23;;;;;;;;;;;5.10;99.90;;;;;;5049817;28;19933;-62
2024/02/03 11:55:50;;;;;;;;;;;5.00;99.90;;;;;;5047583;28;20367;-64
2024/02/03 11:58:17;;;;;;;;;;;5.00;99.90;;;;;;5054673;28;20413;-65
2024/02/03 12:00:44;;;;;;;;;;;5.10;99.90;;;;;;5051767;28;20329;-61
2024/02/03 12:03:11;;;;;;;;;;;5.10;99.90;;;;;;5060342;28;20376;-63
2024/02/03 12:05:39;;;;;;;;;;;5.10;99.90;;;;;;5050535;28;20460;-64
2024/02/03 12:08:06;;;;;;;;;;;5.10;99.90;;;;;;5055292;28;19924;-58
2024/02/03 12:10:34;;;;;;;;;;;5.10;99.90;;;;;;5049781;28;20033;-61
2024/02/03 12:13:01;;;;;;;;;;;5.10;99.90;;;;;;5049723;28;19924;-60
2024/02/03 12:15:29;;;;;;;;;;;5.10;99.90;;;;;;5055307;28;19925;-61
2024/02/03 12:18:02;;;;;;;;;;;5.10;99.90;;;;;;5049645;28;19932;-66
2024/02/03 12:20:30;;;;;;;;;;;5.10;99.90;;;;;;5054408;28;19925;-60
2024/02/03 12:22:57;;;;;;;;;;;5.10;99.90;;;;;;5044460;28;19968;-60
2024/02/03 12:25:25;;;;;;;;;;;5.20;99.90;;;;;;5048495;28;19983;-60
2024/02/03 12:27:52;;;;;;;;;;;5.20;99.90;;;;;;5047728;28;20338;-60
2024/02/03 12:30:20;;;;;;;;;;;5.20;99.90;;;;;;5048633;28;20023;-61
2024/02/03 12:32:47;;;;;;;;;;;5.20;99.90;;;;;;5050833;28;19925;-65
2024/02/03 12:35:14;;;;;;;;;;;5.20;99.90;;;;;;5054384;28;19928;-60
2024/02/03 12:37:41;;;;;;;;;;;5.20;99.90;;;;;;5057599;28;19928;-60
2024/02/03 12:40:11;;;;;;;;;;;5.20;99.90;;;;;;5060145;28;20320;-61
2024/02/03 12:42:38;;;;;;;;;;;5.20;99.90;;;;;;5052567;28;19975;-60
2024/02/03 12:45:06;;;;;;;;;;;5.20;99.90;;;;;;5049729;28;19953;-59
2024/02/03 12:47:33;;;;;;;;;;;5.20;99.90;;;;;;5057707;28;19929;-60
2024/02/03 12:50:01;;;;;;;;;;;5.20;99.90;;;;;;5056641;28;19929;-59
2024/02/03 12:52:28;;;;;;;;;;;5.20;99.90;;;;;;5051421;28;19978;-62
2024/02/03 12:54:55;;;;;;;;;;;5.20;99.90;;;;;;5054961;28;19929;-60
2024/02/03 12:57:22;;;;;;;;;;;5.10;99.90;;;;;;5051481;28;19928;-63
2024/02/03 12:59:49;;;;;;;;;;;5.20;99.90;;;;;;5056891;28;19978;-64
2024/02/03 13:02:16;;;;;;;;;;;5.20;99.90;;;;;;5054072;28;19935;-61
2024/02/03 13:04:42;;;;;;;;;;;5.10;99.90;;;;;;5060289;28;19928;-62
2024/02/03 13:07:13;;;;;;;;;;;5.20;99.90;;;;;;5053647;28;19993;-60
2024/02/03 13:09:41;;;;;;;;;;;5.20;99.90;;;;;;5054586;28;19995;-65
2024/02/03 13:12:08;;;;;;;;;;;5.10;99.90;;;;;;5054521;28;19924;-58
2024/02/03 13:14:35;;;;;;;;;;;5.20;99.90;;;;;;5052296;28;20616;-65
2024/02/03 13:17:02;;;;;;;;;;;5.20;99.90;;;;;;5054109;28;19928;-61
2024/02/03 13:19:29;;;;;;;;;;;5.10;99.90;;;;;;5052294;28;19979;-58
2024/02/03 13:21:56;;;;;;;;;;;5.10;99.90;;;;;;5054904;28;20008;-69
2024/02/03 13:24:25;;;;;;;;;;;5.10;99.90;;;;;;5053574;28;19925;-62
2024/02/03 13:26:52;;;;;;;;;;;5.10;99.90;;;;;;5049698;28;19924;-67
2024/02/03 13:29:19;;;;;;;;;;;5.10;99.90;;;;;;5054850;28;20058;-61
2024/02/03 13:31:46;;;;;;;;;;;5.10;99.90;;;;;;5070006;28;20019;-59
2024/02/03 13:34:12;;;;;;;;;;;5.10;99.90;;;;;;5054577;28;20056;-61
2024/02/03 13:36:46;;;;;;;;;;;5.00;99.90;;;;;;5054346;28;19936;-61
2024/02/03 13:39:13;;;;;;;;;;;5.00;99.90;;;;;;5060397;28;19928;-62
2024/02/03 13:41:40;;;;;;;;;;;5.00;99.90;;;;;;5050077;28;19933;-58
2024/02/03 13:44:06;;;;;;;;;;;5.00;99.90;;;;;;5061989;28;20027;-62
2024/02/03 13:46:33;;;;;;;;;;;5.00;99.90;;;;;;5059044;28;20444;-59
2024/02/03 13:49:00;;;;;;;;;;;5.10;99.90;;;;;;5052906;28;20016;-59
2024/02/03 13:51:28;;;;;;;;;;;5.10;99.90;;;;;;5059634;28;19931;-60
2024/02/03 13:53:58;;;;;;;;;;;5.20;99.90;;;;;;5054756;28;19964;-61
2024/02/03 13:56:25;;;;;;;;;;;5.20;99.90;;;;;;5053001;28;19932;-58
2024/02/03 13:58:51;;;;;;;;;;;5.20;99.90;;;;;;5056087;28;19936;-65
2024/02/03 14:01:19;;;;;;;;;;;5.20;99.90;;;;;;5056098;28;20542;-66
2024/02/03 14:03:47;;;;;;;;;;;5.20;99.90;;;;;;5051605;28;19924;-63
2024/02/03 14:06:14;;;;;;;;;;;5.20;99.90;;;;;;5053403;28;19999;-67
2024/02/03 14:08:41;;;;;;;;;;;5.20;99.90;;;;;;5055949;28;19924;-62
2024/02/03 14:11:08;;;;;;;;;;;5.30;99.90;;;;;;5056841;28;19982;-60
2024/02/03 14:13:34;;;;;;;;;;;5.30;99.90;;;;;;5056509;28;20400;-63
2024/02/03 14:16:01;;;;;;;;;;;5.30;99.90;;;;;;5061477;28;19928;-61
2024/02/03 14:18:28;;;;;;;;;;;5.30;99.90;;;;;;5051690;28;19925;-58
2024/02/03 14:20:55;;;;;;;;;;;5.20;99.90;;;;;;5061340;28;19924;-61
2024/02/03 14:23:22;;;;;;;;;;;5.20;99.90;;;;;;5061125;28;19950;-58
2024/02/03 14:25:49;;;;;;;;;;;5.20;99.90;;;;;;5059061;28;19929;-60
2024/02/03 14:28:15;;;;;;;;;;;5.10;99.90;;;;;;5057317;28;19924;-65
2024/02/03 14:30:42;;;;;;;;;;;5.00;99.90;;;;;;5055904;28;19928;-62